Time;durP1;ratioP1;P1;durP2;ratioP2;P2;SDS_P1;SDS_P2;PMS_P1;PMS_P2;Temp;Humidity;BMP_temperature;BMP_pressure;BME280_temperature;BME280_humidity;BME280_pressure;Samples;Min_cycle;Max_cycle;Signal;HPM_P1;HPM_P2
2022/04/25 00:01:36;;;;;;;12.63;11.43;;;9.40;99.90;;;-141.84;100.00;16394.88;5030184;28;20312;-58
2022/04/25 00:04:05;;;;;;;12.03;10.83;;;9.30;99.90;;;-141.84;100.00;16378.63;5030194;28;20268;-56
2022/04/25 00:06:34;;;;;;;12.73;11.57;;;9.30;99.90;;;-141.84;100.00;16331.94;5030113;28;20202;-59
2022/04/25 00:09:02;;;;;;;13.27;11.97;;;9.20;99.90;;;-141.84;100.00;16356.31;5030700;28;20332;-58
2022/04/25 00:11:30;;;;;;;13.30;11.97;;;9.30;99.90;;;-141.84;100.00;16382.69;5029919;28;20228;-59
2022/04/25 00:13:59;;;;;;;13.57;11.43;;;9.40;99.90;;;-141.84;100.00;16366.47;5030256;28;20230;-59
2022/04/25 00:16:28;;;;;;;13.67;12.10;;;9.40;99.90;;;-141.84;100.00;16358.34;5029689;28;20740;-58
2022/04/25 00:18:56;;;;;;;13.07;11.87;;;9.30;99.90;;;-141.84;100.00;16350.22;5030170;28;20244;-57
2022/04/25 00:21:24;;;;;;;13.30;11.93;;;9.40;99.90;;;-141.84;100.00;16348.19;5029749;28;20755;-58
2022/04/25 00:23:51;;;;;;;13.63;12.33;;;9.40;99.90;;;-141.84;100.00;16348.19;5030163;28;20232;-59
2022/04/25 00:26:19;;;;;;;13.20;11.97;;;9.40;99.90;;;-141.84;100.00;16354.28;5029730;28;20233;-59
2022/04/25 00:28:47;;;;;;;13.20;11.97;;;9.40;99.90;;;-141.84;100.00;16342.09;5030064;28;20232;-58
2022/04/25 00:31:17;;;;;;;12.73;11.47;;;9.30;99.90;;;-141.84;100.00;16338.03;5029701;28;20249;-58
2022/04/25 00:33:45;;;;;;;13.60;12.30;;;9.30;99.90;;;-141.84;100.00;16321.78;5030054;28;20221;-59
2022/04/25 00:36:13;;;;;;;14.20;12.80;;;9.30;99.90;;;-141.84;100.00;16342.09;5029916;28;20232;-59
2022/04/25 00:38:41;;;;;;;14.10;12.90;;;9.20;99.90;;;-141.84;100.00;16311.63;5029376;28;20226;-59
2022/04/25 00:41:09;;;;;;;14.60;13.00;;;9.20;99.90;;;-141.84;100.00;16315.69;5029520;28;20264;-60
2022/04/25 00:43:37;;;;;;;14.57;13.17;;;9.10;99.90;;;-141.84;100.00;16285.22;5029908;28;20320;-61
2022/04/25 00:46:06;;;;;;;15.23;13.63;;;9.10;99.90;;;-141.84;100.00;16305.53;5029656;28;20313;-59
2022/04/25 00:48:35;;;;;;;13.70;12.40;;;9.10;99.90;;;-141.84;100.00;16329.91;5029580;28;20209;-60
2022/04/25 00:51:03;;;;;;;13.97;12.57;;;9.10;99.90;;;-141.84;100.00;16254.78;5030283;28;20198;-60
2022/04/25 00:53:31;;;;;;;14.23;12.73;;;9.10;99.90;;;-141.84;100.00;16275.09;5029216;28;20245;-58
2022/04/25 00:56:00;;;;;;;14.50;13.00;;;9.20;99.90;;;-141.84;100.00;16283.19;5029517;28;20248;-58
2022/04/25 00:58:28;;;;;;;15.07;13.47;;;9.20;99.90;;;-141.84;100.00;16277.13;5029618;28;20736;-61
2022/04/25 01:00:56;;;;;;;14.17;12.67;;;9.10;99.90;;;-141.84;100.00;16228.38;5029563;28;20221;-60
2022/04/25 01:03:25;;;;;;;15.63;13.93;;;9.10;99.90;;;-141.84;100.00;16254.78;5029508;28;20202;-60
2022/04/25 01:05:54;;;;;;;15.90;13.80;;;9.10;99.90;;;-141.84;100.00;16275.09;5029617;28;20615;-59
2022/04/25 01:08:23;;;;;;;14.17;12.70;;;9.10;99.90;;;-141.84;100.00;16307.56;5028954;28;20234;-59
2022/04/25 01:10:51;;;;;;;15.43;13.37;;;9.10;99.90;;;-141.84;100.00;16236.50;5029339;28;20337;-60
2022/04/25 01:13:19;;;;;;;15.10;13.60;;;9.10;99.90;;;-141.84;100.00;16246.66;5029029;28;20278;-60
2022/04/25 01:15:47;;;;;;;16.17;14.47;;;9.10;99.90;;;-141.84;100.00;16250.72;5029156;28;20229;-59
2022/04/25 01:18:15;;;;;;;14.63;13.13;;;9.10;99.90;;;-141.84;100.00;16250.72;5029735;28;20241;-58
2022/04/25 01:20:44;;;;;;;15.83;14.23;;;9.10;99.90;;;-141.84;100.00;16236.50;5029283;28;20257;-59
2022/04/25 01:28:53;;;;;;;16.60;13.53;;;9.00;99.90;;;-141.84;100.00;16206.03;5029231;28;20249;-61
2022/04/25 01:31:21;;;;;;;15.73;13.47;;;9.10;99.90;;;-141.84;100.00;16250.72;5029071;28;20218;-61
2022/04/25 01:33:49;;;;;;;14.90;13.40;;;9.10;99.90;;;-141.84;100.00;16262.91;5029028;28;20261;-59
2022/04/25 01:36:22;;;;;;;17.50;13.57;;;9.00;99.90;;;-141.84;100.00;16234.47;5029855;28;20202;-57
2022/04/25 01:38:52;;;;;;;16.23;13.67;;;9.00;99.90;;;-141.84;100.00;16232.44;5029164;28;20210;-59
2022/04/25 01:41:20;;;;;;;15.43;13.13;;;9.00;99.90;;;-141.84;100.00;16230.41;5029093;28;20316;-59
2022/04/25 01:43:48;;;;;;;16.67;12.73;;;9.00;99.90;;;-141.84;100.00;16222.28;5029006;28;20530;-59
2022/04/25 01:46:16;;;;;;;14.40;12.03;;;9.00;99.90;;;-141.84;100.00;16218.22;5029163;28;20333;-60
2022/04/25 01:48:44;;;;;;;14.07;12.57;;;9.00;99.90;;;-141.84;100.00;16234.47;5030027;28;20226;-58
2022/04/25 01:51:12;;;;;;;14.10;12.03;;;9.00;99.90;;;-141.84;100.00;16232.44;5033337;28;20289;-60
2022/04/25 01:53:40;;;;;;;13.43;12.03;;;9.00;99.90;;;-141.84;100.00;16236.50;5032316;28;20226;-60
2022/04/25 01:56:10;;;;;;;16.73;13.03;;;9.00;99.90;;;-141.84;100.00;16271.03;5032899;28;20318;-60
2022/04/25 01:58:38;;;;;;;18.50;13.43;;;9.00;99.90;;;-141.84;100.00;16222.28;5032663;28;20264;-59
2022/04/25 02:01:07;;;;;;;16.00;12.67;;;9.00;99.90;;;-141.84;100.00;16228.38;5032831;28;20747;-60
2022/04/25 02:03:35;;;;;;;16.53;13.10;;;9.00;99.90;;;-141.84;100.00;16238.53;5032588;28;20294;-60
2022/04/25 02:06:03;;;;;;;18.77;13.43;;;9.00;99.90;;;-141.84;100.00;16226.34;5032731;28;20670;-59
2022/04/25 02:08:31;;;;;;;20.50;14.13;;;9.00;99.90;;;-141.84;100.00;16234.47;5032409;28;20240;-59
2022/04/25 02:13:46;;;;;;;19.73;14.73;;;9.00;99.90;;;-141.84;100.00;16269.00;5032173;28;20235;-57
2022/04/25 02:16:15;;;;;;;17.30;14.50;;;8.90;99.90;;;-141.84;100.00;16260.88;5032336;28;20222;-59
2022/04/25 02:18:43;;;;;;;18.70;14.27;;;8.80;99.90;;;-141.84;100.00;16271.03;5032407;28;20233;-60
2022/04/25 02:21:11;;;;;;;20.27;14.30;;;8.80;99.90;;;-141.84;100.00;16275.09;5032852;28;20222;-59
2022/04/25 02:23:40;;;;;;;19.13;14.73;;;8.80;99.90;;;-141.84;100.00;16281.16;5031927;28;20222;-58
2022/04/25 02:26:08;;;;;;;19.40;13.93;;;8.80;99.90;;;-141.84;100.00;16293.34;5032170;28;20256;-60
2022/04/25 02:28:39;;;;;;;22.17;13.53;;;8.80;99.90;;;-141.84;100.00;16242.59;5031932;28;20828;-60
2022/04/25 02:31:09;;;;;;;19.17;13.87;;;8.70;99.90;;;-141.84;100.00;16248.69;5032062;28;20310;-59
2022/04/25 02:33:37;;;;;;;19.67;14.17;;;8.70;99.90;;;-141.84;100.00;16262.91;5032116;28;20701;-59
2022/04/25 02:36:06;;;;;;;19.63;13.93;;;8.70;99.90;;;-141.84;100.00;16281.16;5032516;28;20225;-60
2022/04/25 02:38:35;;;;;;;19.87;13.40;;;8.80;99.90;;;-141.84;100.00;16277.13;5031690;28;20254;-59
2022/04/25 02:41:06;;;;;;;18.47;13.83;;;8.70;99.90;;;-141.84;100.00;16301.47;5031857;28;20729;-60
2022/04/25 02:43:36;;;;;;;18.63;13.73;;;8.70;99.90;;;-141.84;100.00;16287.25;5032301;28;20324;-60
2022/04/25 02:46:06;;;;;;;17.20;13.77;;;8.70;99.90;;;-141.84;100.00;16301.47;5031890;28;20313;-60
2022/04/25 02:48:37;;;;;;;19.07;14.50;;;8.70;99.90;;;-141.84;100.00;16275.09;5031767;28;20210;-59
2022/04/25 02:51:08;;;;;;;22.00;14.40;;;8.70;99.90;;;-141.84;100.00;16295.38;5031964;28;20191;-60
2022/04/25 02:53:36;;;;;;;19.50;14.73;;;8.70;99.90;;;-141.84;100.00;16262.91;5031419;28;20226;-59
2022/04/25 02:56:06;;;;;;;17.57;14.87;;;8.60;99.90;;;-141.84;100.00;16283.19;5031783;28;20257;-59
2022/04/25 02:58:36;;;;;;;18.30;14.97;;;8.50;99.90;;;-141.84;100.00;16262.91;5031337;28;20713;-58
2022/04/25 03:01:05;;;;;;;18.27;14.23;;;8.50;99.90;;;-141.84;100.00;16248.69;5031329;28;20707;-59
2022/04/25 03:03:37;;;;;;;20.20;14.97;;;8.40;99.90;;;-141.84;100.00;16256.81;5031687;28;20226;-60
2022/04/25 03:06:10;;;;;;;22.27;14.70;;;8.50;99.90;;;-141.84;100.00;16287.25;5032041;28;20248;-57
2022/04/25 03:08:40;;;;;;;21.73;15.23;;;8.50;99.90;;;-141.84;100.00;16258.84;5031220;28;20304;-58
2022/04/25 03:11:10;;;;;;;25.20;15.20;;;8.50;99.90;;;-141.84;100.00;16250.72;5031272;28;20585;-59
2022/04/25 03:13:39;;;;;;;21.70;15.43;;;8.40;99.90;;;-141.84;100.00;16273.06;5031386;28;20317;-59
2022/04/25 03:16:08;;;;;;;24.27;16.27;;;8.40;99.90;;;-141.84;100.00;16262.91;5030993;28;20309;-58
2022/04/25 03:18:38;;;;;;;19.17;15.83;;;8.40;99.90;;;-141.84;100.00;16285.22;5031697;28;20221;-57
2022/04/25 03:21:06;;;;;;;21.93;16.47;;;8.30;99.90;;;-141.84;100.00;16275.09;5031433;28;20236;-57
2022/04/25 03:23:36;;;;;;;20.03;15.13;;;8.20;99.90;;;-141.84;100.00;16281.16;5031077;28;20284;-59
2022/04/25 03:26:05;;;;;;;21.70;16.43;;;8.20;99.90;;;-141.84;100.00;16277.13;5030902;28;20312;-59
2022/04/25 03:28:34;;;;;;;21.10;16.87;;;8.10;99.90;;;-141.84;100.00;16285.22;5031247;28;20312;-58
2022/04/25 03:31:06;;;;;;;24.23;15.97;;;8.10;99.90;;;-141.84;100.00;16283.19;5030987;28;20276;-58
2022/04/25 03:33:34;;;;;;;23.93;16.87;;;8.20;99.90;;;-141.84;100.00;16273.06;5031090;28;20221;-57
2022/04/25 03:36:05;;;;;;;20.77;15.87;;;8.20;99.90;;;-141.84;100.00;16299.44;5031377;28;20228;-59
2022/04/25 03:38:33;;;;;;;22.87;15.87;;;8.10;99.90;;;-141.84;100.00;16264.94;5030558;28;20240;-58
2022/04/25 03:41:01;;;;;;;23.60;15.73;;;8.10;99.90;;;-141.84;100.00;16283.19;5030679;28;20229;-59
2022/04/25 03:43:31;;;;;;;22.93;15.50;;;8.10;99.90;;;-141.84;100.00;16244.63;5011068;28;20258;-60
2022/04/25 03:46:01;;;;;;;20.70;15.87;;;8.00;99.90;;;-141.84;100.00;16295.38;5021487;28;20268;-59
2022/04/25 03:48:29;;;;;;;21.73;15.70;;;8.10;99.90;;;-141.84;100.00;16236.50;5030468;28;20316;-60
2022/04/25 03:50:57;;;;;;;20.03;15.13;;;8.10;99.90;;;-141.84;100.00;16262.91;5031108;28;20284;-59
2022/04/25 03:53:27;;;;;;;20.37;15.37;;;8.10;99.90;;;-141.84;100.00;16273.06;5030314;28;20767;-59
2022/04/25 03:58:40;;;;;;;18.10;15.57;;;8.10;99.90;;;-141.84;100.00;16287.25;5030481;28;20230;-60
2022/04/25 04:01:08;;;;;;;18.73;15.43;;;8.10;99.90;;;-141.84;100.00;16283.19;5030412;28;20669;-57
2022/04/25 04:03:37;;;;;;;22.07;16.17;;;8.10;99.90;;;-141.84;100.00;16264.94;5030454;28;20288;-60
2022/04/25 04:06:05;;;;;;;22.37;16.07;;;8.00;99.90;;;-141.84;100.00;16234.47;5030515;28;20666;-59
2022/04/25 04:08:35;;;;;;;21.13;15.53;;;8.00;99.90;;;-141.84;100.00;16260.88;5030222;28;20309;-60
2022/04/25 04:11:05;;;;;;;19.07;15.17;;;7.90;99.90;;;-141.84;100.00;16258.84;5029694;28;20237;-58
2022/04/25 04:13:33;;;;;;;23.20;16.70;;;7.90;99.90;;;-141.84;100.00;16266.97;5029890;28;20321;-59
2022/04/25 04:16:03;;;;;;;21.93;16.43;;;7.90;99.90;;;-141.84;100.00;16264.94;5029760;28;20431;-61
2022/04/25 04:18:31;;;;;;;22.50;16.57;;;8.00;99.90;;;-141.84;100.00;16271.03;5030224;28;20634;-59
2022/04/25 04:20:59;;;;;;;20.67;16.50;;;7.90;99.90;;;-141.84;100.00;16242.59;5030345;28;20281;-59
2022/04/25 04:23:34;;;;;;;23.73;16.80;;;7.90;99.90;;;-141.84;100.00;16293.34;5030156;28;20259;-57
2022/04/25 04:26:03;;;;;;;25.47;17.23;;;8.00;99.90;;;-141.84;100.00;16273.06;5029766;28;20252;-58
2022/04/25 04:28:31;;;;;;;20.20;16.07;;;8.00;99.90;;;-141.84;100.00;16252.75;5029782;28;20264;-60
2022/04/25 04:30:59;;;;;;;22.70;16.77;;;8.00;99.90;;;-141.84;100.00;16295.38;5029628;28;20257;-60
2022/04/25 04:33:27;;;;;;;23.47;16.93;;;8.00;99.90;;;-141.84;100.00;16262.91;5029514;28;20673;-59
2022/04/25 04:38:45;;;;;;;21.03;16.97;;;7.90;99.90;;;-141.84;100.00;16275.09;5029603;28;20541;-59
2022/04/25 04:41:14;;;;;;;23.60;16.57;;;8.00;99.90;;;-141.84;100.00;16269.00;5029568;28;20224;-59
2022/04/25 04:43:42;;;;;;;23.93;16.90;;;7.90;99.90;;;-141.84;100.00;16262.91;5029904;28;20321;-60
2022/04/25 04:46:10;;;;;;;22.90;16.60;;;7.90;99.90;;;-141.84;100.00;16236.50;5029757;28;20229;-59
2022/04/25 04:48:38;;;;;;;24.43;16.83;;;8.00;99.90;;;-141.84;100.00;16234.47;5029599;28;20210;-60
2022/04/25 04:51:08;;;;;;;21.60;16.27;;;7.90;99.90;;;-141.84;100.00;16210.09;5029779;28;20209;-60
2022/04/25 04:53:36;;;;;;;21.37;17.03;;;7.90;99.90;;;-141.84;100.00;16201.97;5029793;28;20230;-59
2022/04/25 04:56:06;;;;;;;19.87;15.90;;;7.90;99.90;;;-141.84;100.00;16248.69;5029583;28;20305;-60
2022/04/25 04:58:39;;;;;;;20.93;16.17;;;7.90;99.90;;;-141.84;100.00;16250.72;5029492;28;20312;-59
2022/04/25 05:01:08;;;;;;;19.23;15.77;;;7.90;99.90;;;-141.84;100.00;16266.97;5029446;28;20309;-57
2022/04/25 05:03:36;;;;;;;19.53;15.87;;;8.00;99.90;;;-141.84;100.00;16319.75;5029539;28;20209;-59
2022/04/25 05:06:05;;;;;;;22.33;16.20;;;8.00;99.90;;;-141.84;100.00;16287.25;5030512;28;20209;-60
2022/04/25 05:08:33;;;;;;;21.53;15.97;;;8.00;99.90;;;-141.84;100.00;16287.25;5029861;28;20230;-58
2022/04/25 05:11:01;;;;;;;20.63;16.37;;;7.90;99.90;;;-141.84;100.00;16273.06;5030033;28;20253;-58
2022/04/25 05:13:31;;;;;;;21.50;16.17;;;7.80;99.90;;;-141.84;100.00;16279.13;5029723;28;20801;-58
2022/04/25 05:15:59;;;;;;;23.80;16.57;;;7.90;99.90;;;-141.84;100.00;16321.78;5029804;28;20252;-59
2022/04/25 05:18:28;;;;;;;18.90;16.00;;;8.00;99.90;;;-141.84;100.00;16331.94;5030394;28;20232;-59
2022/04/25 05:20:56;;;;;;;21.10;17.07;;;8.00;99.90;;;-141.84;100.00;16279.13;5030657;28;20206;-59
2022/04/25 05:23:24;;;;;;;21.60;16.53;;;7.90;99.90;;;-141.84;100.00;16325.84;5030576;28;20605;-59
2022/04/25 05:25:53;;;;;;;20.37;15.70;;;7.90;99.90;;;-141.84;100.00;16307.56;5034056;28;20776;-58
2022/04/25 05:28:22;;;;;;;20.37;15.90;;;8.00;99.90;;;-141.84;100.00;16291.31;5034309;28;20221;-60
2022/04/25 05:30:51;;;;;;;21.13;15.37;;;8.00;99.90;;;-141.84;100.00;16315.69;5034359;28;20735;-60
2022/04/25 05:33:20;;;;;;;22.87;15.73;;;8.00;99.90;;;-141.84;100.00;16344.13;5034977;28;20206;-58
2022/04/25 05:35:48;;;;;;;21.47;15.73;;;8.10;99.90;;;-141.84;100.00;16319.75;5034200;28;20217;-59
2022/04/25 05:38:16;;;;;;;18.57;15.47;;;8.00;99.90;;;-141.84;100.00;16329.91;5033878;28;20701;-58
2022/04/25 05:40:44;;;;;;;20.67;15.37;;;8.00;99.90;;;-141.84;100.00;16348.19;5034027;28;20226;-60
2022/04/25 05:43:12;;;;;;;19.47;14.60;;;8.10;99.90;;;-141.84;99.82;16350.22;5034036;28;20222;-59
2022/04/25 05:45:41;;;;;;;18.63;14.37;;;8.20;99.90;;;-141.84;99.45;16336.00;5033984;28;20216;-57
2022/04/25 05:53:39;;;;;;;18.07;15.00;;;8.20;99.90;;;-141.84;99.36;16338.03;5033409;28;20222;-61
2022/04/25 05:56:07;;;;;;;20.50;15.83;;;8.20;99.90;;;-141.84;99.70;16352.25;5033519;28;20237;-60
2022/04/25 05:58:35;;;;;;;18.63;14.17;;;8.10;99.90;;;-141.84;99.40;16360.38;5033511;28;20328;-60
2022/04/25 06:01:03;;;;;;;23.20;15.77;;;8.20;99.90;;;-141.84;99.59;16360.38;5033772;28;20305;-60
2022/04/25 06:03:32;;;;;;;21.83;14.97;;;8.20;99.90;;;-141.84;100.00;16333.97;5033710;28;20666;-57
2022/04/25 06:06:00;;;;;;;20.20;15.53;;;8.20;99.90;;;-141.84;98.62;16342.09;5034079;28;20305;-58
2022/04/25 06:08:28;;;;;;;17.83;15.17;;;8.20;99.90;;;-141.84;98.00;16364.44;5033319;28;20309;-59
2022/04/25 06:10:56;;;;;;;21.30;15.23;;;8.30;99.90;;;-141.84;98.45;16348.19;5033502;28;20313;-59
2022/04/25 06:13:25;;;;;;;18.13;14.70;;;8.30;99.90;;;-141.84;98.09;16378.63;5033296;28;20240;-59
2022/04/25 06:15:53;;;;;;;17.10;14.27;;;8.40;99.90;;;-141.84;96.92;16400.97;5033200;28;20318;-57
2022/04/25 06:18:22;;;;;;;17.60;14.60;;;8.40;99.90;;;-141.84;97.10;16386.75;5033885;28;20210;-59
2022/04/25 06:20:51;;;;;;;21.33;15.57;;;8.50;99.90;;;-141.84;96.90;16380.66;5033466;28;20264;-58
2022/04/25 06:23:19;;;;;;;17.90;15.20;;;8.50;99.90;;;-141.84;99.03;16356.31;5033012;28;20333;-58
2022/04/25 06:25:47;;;;;;;19.57;14.37;;;8.50;99.90;;;-141.84;96.70;16386.75;5033257;28;20296;-56
2022/04/25 06:28:15;;;;;;;17.53;15.13;;;8.60;99.90;;;-141.84;95.74;16378.63;5033013;28;20305;-55
2022/04/25 06:30:43;;;;;;;20.43;15.07;;;8.60;99.90;;;-141.84;94.47;16435.50;5032966;28;20240;-56
2022/04/25 06:33:11;;;;;;;16.37;14.63;;;8.70;99.90;;;-141.84;94.94;16425.34;5029956;28;20300;-55
2022/04/25 06:35:39;;;;;;;19.53;16.40;;;8.70;99.90;;;-141.84;95.21;16439.56;5032353;28;20225;-58
2022/04/25 06:38:08;;;;;;;19.57;15.33;;;8.70;99.90;;;-141.84;95.07;16413.16;5032920;28;20236;-58
2022/04/25 06:40:37;;;;;;;17.33;14.47;;;8.70;99.90;;;-141.84;95.60;16429.41;5032838;28;20222;-58
2022/04/25 06:43:07;;;;;;;19.97;14.93;;;8.70;99.90;;;-141.84;93.78;16453.78;5032854;28;20300;-53
2022/04/25 06:45:36;;;;;;;18.43;15.30;;;8.80;99.90;;;-141.84;93.28;16443.63;5032732;28;20273;-58
2022/04/25 06:48:05;;;;;;;19.23;14.97;;;8.80;99.90;;;-141.84;92.41;16510.63;5033002;28;20674;-55
2022/04/25 06:50:33;;;;;;;20.00;15.23;;;8.90;99.90;;;-141.84;91.26;16492.34;5032555;28;20312;-57
2022/04/25 06:53:00;;;;;;;17.37;14.63;;;8.90;99.90;;;-141.84;91.99;16494.38;5032390;28;20237;-56
2022/04/25 06:55:30;;;;;;;18.10;14.27;;;8.90;99.90;;;-141.84;92.21;16514.69;5032589;28;20253;-58
2022/04/25 06:58:00;;;;;;;19.20;14.60;;;8.90;99.90;;;-141.84;92.64;16494.38;5032622;28;20602;-54
2022/04/25 07:00:28;;;;;;;19.37;15.27;;;8.80;99.90;;;-141.84;91.96;16504.53;5032640;28;20661;-56
2022/04/25 07:03:02;;;;;;;18.13;14.33;;;8.90;99.90;;;-141.84;92.12;16522.81;5033019;28;20183;-58
2022/04/25 07:05:30;;;;;;;17.00;14.07;;;8.80;99.90;;;-141.84;91.50;16480.16;5030915;28;20225;-59
2022/04/25 07:07:59;;;;;;;23.23;15.03;;;8.90;99.90;;;-141.84;90.87;16514.69;5031406;28;20236;-55
2022/04/25 07:10:27;;;;;;;17.37;14.73;;;9.00;99.90;;;-141.84;91.68;16516.72;5031435;28;20725;-56
2022/04/25 07:12:56;;;;;;;15.83;14.07;;;8.90;99.90;;;-141.84;90.07;16543.13;5031327;28;20230;-57
2022/04/25 07:15:25;;;;;;;16.53;13.67;;;9.00;99.90;;;-141.84;90.98;16535.00;5030967;28;20198;-56
2022/04/25 07:17:55;;;;;;;17.20;14.53;;;9.00;99.90;;;-141.84;90.05;16541.09;5031827;28;20217;-55
2022/04/25 07:20:24;;;;;;;22.63;15.00;;;9.10;99.90;;;-141.84;89.82;16539.06;5031164;28;20529;-57
2022/04/25 07:31:10;;;;;;;16.00;13.57;;;9.30;99.90;;;-141.84;88.19;16595.91;5031478;28;20527;-57
2022/04/25 07:33:43;;;;;;;18.30;13.70;;;9.40;99.90;;;-141.84;87.65;16604.03;5031463;28;20213;-56
2022/04/25 07:36:12;;;;;;;17.40;13.80;;;9.40;99.90;;;-141.84;88.27;16642.63;5031526;28;20309;-57
2022/04/25 07:38:46;;;;;;;16.93;13.77;;;9.40;99.90;;;-141.84;88.50;16602.00;5030979;28;20225;-57
2022/04/25 07:41:14;;;;;;;19.37;15.03;;;9.30;99.90;;;-141.84;87.41;16628.41;5030896;28;20230;-55
2022/04/25 07:43:44;;;;;;;15.17;13.20;;;9.40;99.90;;;-141.84;86.41;16644.66;5030951;28;20230;-56
2022/04/25 07:46:13;;;;;;;17.07;13.30;;;9.50;99.90;;;-141.84;86.20;16681.19;5030220;28;20252;-59
2022/04/25 07:48:41;;;;;;;20.13;13.93;;;9.60;99.90;;;-141.84;86.25;16691.34;5030906;28;20216;-57
2022/04/25 07:51:09;;;;;;;16.87;13.77;;;9.60;99.90;;;-141.84;86.86;16660.91;5030790;28;20202;-56
2022/04/25 07:53:53;;;;;;;19.60;14.63;;;9.60;99.90;;;-141.84;86.27;16669.03;5032631;28;20206;-58
2022/04/25 07:56:21;;;;;;;15.67;13.33;;;9.60;99.90;;;-141.84;87.26;16660.91;5031765;28;20214;-57
2022/04/25 07:58:50;;;;;;;17.57;14.63;;;9.60;99.90;;;-141.84;88.72;16626.38;5031180;28;20208;-59
2022/04/25 08:01:19;;;;;;;21.13;14.40;;;9.70;99.90;;;-141.84;86.76;16669.03;5031809;28;20225;-57
2022/04/25 08:03:47;;;;;;;16.47;13.80;;;9.80;99.90;;;-141.84;85.18;16746.19;5031319;28;20206;-56
2022/04/25 08:06:15;;;;;;;16.27;13.40;;;9.80;99.90;;;-141.84;83.81;16750.25;5031681;28;20193;-59
2022/04/25 08:08:43;;;;;;;18.20;13.20;;;9.90;99.90;;;-141.84;83.61;16780.72;5031513;28;20232;-56
2022/04/25 08:11:11;;;;;;;16.50;13.23;;;9.90;99.90;;;-141.84;85.00;16709.63;5031518;28;20210;-57
2022/04/25 08:19:13;;;;;;;17.90;14.43;;;9.80;99.90;;;-141.84;85.31;16723.84;5031223;28;20193;-57
2022/04/25 08:21:41;;;;;;;19.17;13.50;;;9.80;99.90;;;-141.84;85.36;16723.84;5030910;28;20240;-58
2022/04/25 08:24:11;;;;;;;16.37;13.40;;;9.70;99.90;;;-141.84;85.67;16752.28;5031470;28;20285;-58
2022/04/25 08:26:39;;;;;;;16.00;13.73;;;9.70;99.90;;;-141.84;86.00;16734.00;5031184;28;20273;-57
2022/04/25 08:29:08;;;;;;;16.07;13.90;;;9.70;99.90;;;-141.84;83.92;16782.75;5031204;28;20332;-59
2022/04/25 08:31:39;;;;;;;18.43;14.17;;;9.80;99.90;;;-141.84;83.87;16805.09;5031405;28;20212;-58
2022/04/25 08:34:09;;;;;;;16.63;13.93;;;9.90;99.90;;;-141.84;82.04;16809.13;5031231;28;20631;-59
2022/04/25 08:36:37;;;;;;;17.67;12.77;;;10.00;99.90;;;-141.84;81.63;16868.03;5031158;28;20298;-56
2022/04/25 08:39:05;;;;;;;15.50;13.63;;;10.10;99.90;;;-141.84;83.40;16813.19;5030694;28;20208;-59
2022/04/25 08:41:41;;;;;;;16.87;13.43;;;10.10;99.90;;;-141.84;80.00;16898.50;5030798;28;20740;-58
2022/04/25 08:44:11;;;;;;;14.03;12.37;;;10.30;99.90;;;-141.84;80.84;16908.66;5030882;28;20185;-58
2022/04/25 08:46:42;;;;;;;14.53;12.50;;;10.40;99.90;;;-141.84;80.71;16894.44;5030860;28;20576;-58
2022/04/25 08:49:11;;;;;;;18.43;12.83;;;10.60;99.90;;;-141.84;79.34;16957.41;5030816;28;20536;-55
2022/04/25 08:51:41;;;;;;;15.23;13.17;;;10.50;99.90;;;-141.84;78.53;17008.16;5030360;28;20202;-59
2022/04/25 08:54:09;;;;;;;14.80;12.53;;;10.60;99.90;;;-141.84;79.01;16949.28;5030650;28;20210;-57
2022/04/25 08:56:40;;;;;;;15.10;13.53;;;10.60;99.90;;;-141.84;80.86;16900.53;5030982;28;20240;-56
2022/04/25 08:59:10;;;;;;;16.57;13.20;;;10.40;99.90;;;-141.84;80.34;16910.69;5030352;28;20320;-56
2022/04/25 09:01:41;;;;;;;17.30;13.23;;;10.50;99.90;;;-141.84;78.50;16998.00;5030512;28;20562;-57
2022/04/25 09:04:09;;;;;;;16.23;12.07;;;10.50;99.90;;;-141.84;79.26;16981.75;5030811;28;20243;-56
2022/04/25 09:06:37;;;;;;;16.13;12.67;;;10.50;99.90;;;-141.84;78.48;17006.13;5030625;28;20297;-59
2022/04/25 09:09:05;;;;;;;13.97;12.47;;;10.60;99.90;;;-141.84;76.48;17040.66;5030281;28;20296;-58
2022/04/25 09:14:21;;;;;;;14.27;12.50;;;10.80;99.90;;;-141.84;74.78;17156.41;5030328;28;20209;-58
2022/04/25 09:16:51;;;;;;;13.90;12.07;;;10.90;99.90;;;-141.84;72.78;17132.06;5030514;28;20229;-56
2022/04/25 09:19:20;;;;;;;14.77;12.67;;;11.20;99.90;;;-141.84;73.80;17138.16;5030991;28;20209;-56
2022/04/25 09:21:48;;;;;;;21.30;13.20;;;11.10;99.90;;;-141.84;74.56;17132.06;5030563;28;20297;-58
2022/04/25 09:24:27;;;;;;;14.93;12.17;;;11.20;99.90;;;-141.84;73.51;17164.53;5030114;28;20202;-57
2022/04/25 09:27:12;;;;;;;13.97;12.57;;;11.30;99.90;;;-141.84;73.94;17152.34;5030741;28;20186;-59
2022/04/25 09:29:42;;;;;;;14.43;12.20;;;11.40;99.90;;;-141.84;73.29;17176.72;5030590;28;20190;-56
2022/04/25 09:32:12;;;;;;;13.57;12.07;;;11.30;99.90;;;-141.84;75.02;17105.66;5030325;28;20248;-57
2022/04/25 09:37:45;;;;;;;16.33;12.80;;;11.30;99.90;;;-141.84;74.85;17132.06;5030204;28;20214;-57
2022/04/25 09:40:19;;;;;;;16.70;13.07;;;11.20;99.90;;;-141.84;73.65;17158.44;5029980;28;20182;-56
2022/04/25 09:42:48;;;;;;;14.60;13.10;;;11.40;99.90;;;-141.84;74.71;17109.72;5030513;28;20186;-59
2022/04/25 09:45:16;;;;;;;19.27;14.33;;;11.30;99.90;;;-141.84;74.06;17146.28;5030700;28;20304;-59
2022/04/25 09:47:46;;;;;;;15.27;13.13;;;11.20;99.90;;;-141.84;74.40;17144.25;5030354;28;20198;-58
2022/04/25 09:50:16;;;;;;;14.80;12.13;;;11.20;99.90;;;-141.84;74.86;17123.94;5030523;28;20190;-57
2022/04/25 09:53:04;;;;;;;15.60;12.93;;;11.20;99.90;;;-141.84;74.68;17142.22;5030012;28;20217;-58
2022/04/25 09:55:37;;;;;;;17.20;13.90;;;11.20;99.90;;;-141.84;76.49;17128.00;5030325;28;20243;-56
2022/04/25 09:58:19;;;;;;;15.67;13.60;;;11.00;99.90;;;-141.84;76.28;17095.50;5030077;28;20718;-60
2022/04/25 10:00:49;;;;;;;18.17;13.73;;;10.80;99.90;;;-141.84;77.94;17048.78;5030305;28;20237;-59
2022/04/25 10:03:33;;;;;;;15.97;13.10;;;10.80;99.90;;;-141.84;76.14;17103.63;5030122;28;20202;-58
2022/04/25 10:06:04;;;;;;;14.47;12.97;;;10.90;99.90;;;-141.84;74.39;17160.47;5030596;28;20273;-59
2022/04/25 10:08:35;;;;;;;15.10;12.60;;;11.00;99.90;;;-141.84;74.52;17125.97;5030142;28;20182;-58
2022/04/25 10:11:07;;;;;;;13.87;12.47;;;11.10;99.90;;;-141.84;75.14;17128.00;5033100;28;20294;-57
2022/04/25 10:13:36;;;;;;;16.17;13.20;;;11.20;99.90;;;-141.84;73.73;17115.81;5033561;28;20218;-58
2022/04/25 10:16:05;;;;;;;15.23;12.57;;;11.40;99.90;;;-141.84;73.35;17152.34;5034114;28;20252;-59
2022/04/25 10:18:36;;;;;;;14.77;12.77;;;11.40;99.90;;;-141.84;74.56;17140.19;5033456;28;20213;-57
2022/04/25 10:21:07;;;;;;;13.97;12.53;;;11.60;99.90;;;-141.84;71.18;17231.56;5033523;28;20301;-56
2022/04/25 10:23:35;;;;;;;14.00;11.30;;;11.80;99.90;;;-141.84;69.39;17251.88;5033148;28;20187;-57
2022/04/25 10:26:03;;;;;;;16.20;11.80;;;12.00;99.90;;;-141.84;69.98;17253.91;5033668;28;20360;-58
2022/04/25 10:28:41;;;;;;;14.27;12.53;;;12.00;99.90;;;-141.84;70.74;17249.84;5033416;28;20293;-59
2022/04/25 10:31:14;;;;;;;15.03;12.77;;;12.00;99.90;;;-141.84;71.13;17255.94;5034311;28;20206;-58
2022/04/25 10:33:54;;;;;;;14.17;12.77;;;11.90;99.90;;;-141.84;71.29;17245.78;5033865;28;20684;-57
2022/04/25 10:36:46;;;;;;;17.00;13.67;;;11.80;99.90;;;-141.84;71.16;17266.09;5034222;28;20575;-57
2022/04/25 10:39:17;;;;;;;15.80;14.10;;;11.60;99.90;;;-141.84;73.22;17192.97;5034351;28;20210;-57
2022/04/25 10:45:00;;;;;;;15.43;12.80;;;11.30;99.90;;;-141.84;73.73;17176.72;5033844;28;20710;-59
2022/04/25 10:47:29;;;;;;;14.93;13.33;;;11.30;99.90;;;-141.84;75.15;17136.13;5034188;28;20179;-58